Shintoukou — JD4184 — position and weather

sailwx.info

Track history (hours):
 
Tides and Currents Weather Stations Pressure Air Temp Water Temp Dewpoint Dewpoint Depression Visibility Wind Speed Wind Dir Waves Ship Positions

Shintoukou

Last reported at 2017-Dec-15 07:31 UTC. Time now 2017-Dec-15 08:23 UTC.
Position N 34°35' E 134°20'.

Length 45 m; draft 3 m.

Type: Tanker. MMSI: 431009442.

Date/timePositionNaut miles runAvg speedWind from/ knotsBaromVisibWave heightAir tempDewpointWater temp
2017-Dec-15 07:31N 34°35' E 134°20'1 9.4
2017-Dec-15 07:27N 34°35' E 134°20'  
2017-Dec-10 07:52N 34°18' E 132°57'1710.8
2017-Dec-10 06:21N 34°12' E 132°38'410.7
2017-Dec-10 06:01N 34°12' E 132°34'5 9.1
2017-Dec-10 05:30N 34°15' E 132°31'4 8.4
2017-Dec-10 05:01N 34°17' E 132°26'510.2
2017-Dec-10 04:31N 34°19' E 132°20'4 7.2
2017-Dec-10 03:57N 34°17' E 132°16'0 0.0
2017-Dec-10 03:28N 34°17' E 132°16'0 0.0
2017-Dec-10 02:03N 34°17' E 132°16'0 0.0
2017-Dec-10 01:52N 34°17' E 132°16'0 0.0
2017-Dec-10 01:30N 34°17' E 132°16'0 0.5
2017-Dec-10 00:50N 34°17' E 132°17'1 1.6
2017-Dec-10 00:30N 34°17' E 132°17'5 9.2
2017-Dec-10 00:00N 34°19' E 132°22'0 0.6
2017-Dec-09 23:28N 34°19' E 132°22'0 0.1
2017-Dec-09 22:58N 34°19' E 132°22'0 0.0
2017-Dec-09 22:25N 34°19' E 132°22'0 0.0
2017-Dec-09 21:58N 34°19' E 132°22'0 0.0
2017-Dec-09 21:28N 34°19' E 132°22'0 0.0
2017-Dec-09 20:58N 34°19' E 132°22'0 0.1
2017-Dec-09 20:28N 34°19' E 132°22'0 0.0
2017-Dec-09 19:58N 34°19' E 132°22'0 0.1
2017-Dec-09 19:25N 34°19' E 132°22'0 0.1
2017-Dec-09 18:58N 34°19' E 132°22'0 0.0
2017-Dec-09 18:28N 34°19' E 132°22'0 0.1
2017-Dec-09 17:58N 34°19' E 132°22'0 0.1
2017-Dec-09 17:28N 34°19' E 132°22'0 0.0
2017-Dec-09 16:58N 34°19' E 132°22'0 0.0
2017-Dec-09 16:28N 34°19' E 132°22'0 0.0
2017-Dec-09 15:58N 34°19' E 132°22'0 0.0
2017-Dec-09 15:28N 34°19' E 132°22'0 0.0
2017-Dec-09 14:55N 34°19' E 132°22'0 0.0
2017-Dec-09 14:28N 34°19' E 132°22'0 0.0
2017-Dec-09 13:58N 34°19' E 132°22'2 3.9
2017-Dec-09 13:30N 34°18' E 132°23'5 9.4
2017-Dec-09 13:00N 34°18' E 132°29'5 9.8
2017-Dec-09 12:30N 34°14' E 132°31'3 7.0
2017-Dec-09 12:01N 34°12' E 132°35'1210.3
2017-Dec-09 10:51N 34°15' E 132°49'78 1.6
2017-Dec-07 09:01N 34°22' E 134°23'110.5
2017-Dec-07 08:55N 34°21' E 134°24'510.4
2017-Dec-07 08:26N 34°19' E 134°30'410.4
2017-Dec-07 08:00N 34°17' E 134°34'5 9.3
2017-Dec-07 07:30N 34°14' E 134°39'2 3.1
2017-Dec-07 06:56N 34°12' E 134°40'3 1.2
2017-Dec-07 04:23N 34°12' E 134°36'  
Track history (hours):
 
Tides and Currents Weather Stations Pressure Air Temp Water Temp Dewpoint Dewpoint Depression Visibility Wind Speed Wind Dir Waves Ship Positions

Shintoukou

Last reported at 2017-Dec-15 07:31 UTC. Time now 2017-Dec-15 08:23 UTC.
Position N 34°35' E 134°20'.

Length 45 m; draft 3 m.

Type: Tanker. MMSI: 431009442.

Date/timePositionNaut miles runAvg speedWind from/ knotsBaromVisibWave heightAir tempDewpointWater temp
2017-Dec-15 07:31N 34°35' E 134°20'1 9.4
2017-Dec-15 07:27N 34°35' E 134°20'  
2017-Dec-10 07:52N 34°18' E 132°57'1710.8
2017-Dec-10 06:21N 34°12' E 132°38'410.7
2017-Dec-10 06:01N 34°12' E 132°34'5 9.1
2017-Dec-10 05:30N 34°15' E 132°31'4 8.4
2017-Dec-10 05:01N 34°17' E 132°26'510.2
2017-Dec-10 04:31N 34°19' E 132°20'4 7.2
2017-Dec-10 03:57N 34°17' E 132°16'0 0.0
2017-Dec-10 03:28N 34°17' E 132°16'0 0.0
2017-Dec-10 02:03N 34°17' E 132°16'0 0.0
2017-Dec-10 01:52N 34°17' E 132°16'0 0.0
2017-Dec-10 01:30N 34°17' E 132°16'0 0.5
2017-Dec-10 00:50N 34°17' E 132°17'1 1.6
2017-Dec-10 00:30N 34°17' E 132°17'5 9.2
2017-Dec-10 00:00N 34°19' E 132°22'0 0.6
2017-Dec-09 23:28N 34°19' E 132°22'0 0.1
2017-Dec-09 22:58N 34°19' E 132°22'0 0.0
2017-Dec-09 22:25N 34°19' E 132°22'0 0.0
2017-Dec-09 21:58N 34°19' E 132°22'0 0.0
2017-Dec-09 21:28N 34°19' E 132°22'0 0.0
2017-Dec-09 20:58N 34°19' E 132°22'0 0.1
2017-Dec-09 20:28N 34°19' E 132°22'0 0.0
2017-Dec-09 19:58N 34°19' E 132°22'0 0.1
2017-Dec-09 19:25N 34°19' E 132°22'0 0.1
2017-Dec-09 18:58N 34°19' E 132°22'0 0.0
2017-Dec-09 18:28N 34°19' E 132°22'0 0.1
2017-Dec-09 17:58N 34°19' E 132°22'0 0.1
2017-Dec-09 17:28N 34°19' E 132°22'0 0.0
2017-Dec-09 16:58N 34°19' E 132°22'0 0.0
2017-Dec-09 16:28N 34°19' E 132°22'0 0.0
2017-Dec-09 15:58N 34°19' E 132°22'0 0.0
2017-Dec-09 15:28N 34°19' E 132°22'0 0.0
2017-Dec-09 14:55N 34°19' E 132°22'0 0.0
2017-Dec-09 14:28N 34°19' E 132°22'0 0.0
2017-Dec-09 13:58N 34°19' E 132°22'2 3.9
2017-Dec-09 13:30N 34°18' E 132°23'5 9.4
2017-Dec-09 13:00N 34°18' E 132°29'5 9.8
2017-Dec-09 12:30N 34°14' E 132°31'3 7.0
2017-Dec-09 12:01N 34°12' E 132°35'1210.3
2017-Dec-09 10:51N 34°15' E 132°49'78 1.6
2017-Dec-07 09:01N 34°22' E 134°23'110.5
2017-Dec-07 08:55N 34°21' E 134°24'510.4
2017-Dec-07 08:26N 34°19' E 134°30'410.4
2017-Dec-07 08:00N 34°17' E 134°34'5 9.3
2017-Dec-07 07:30N 34°14' E 134°39'2 3.1
2017-Dec-07 06:56N 34°12' E 134°40'3 1.2
2017-Dec-07 04:23N 34°12' E 134°36'  

Dump ship's entire track history